Time;durP1;ratioP1;P1;durP2;ratioP2;P2;SDS_P1;SDS_P2;PMS_P1;PMS_P2;Temp;Humidity;BMP_temperature;BMP_pressure;BME280_temperature;BME280_humidity;BME280_pressure;Samples;Min_cycle;Max_cycle;Signal;HPM_P1;HPM_P2
2021/03/16 00:00:51;;;;;;;1999.90;999.90;;;6.60;99.90;;;;;;6217399;23;20075;-95
2021/03/16 00:03:19;;;;;;;1999.90;999.90;;;6.60;99.90;;;;;;6218437;23;20468;-95
2021/03/16 00:05:46;;;;;;;1999.90;999.90;;;6.60;99.90;;;;;;6216627;23;20021;-96
2021/03/16 00:08:13;;;;;;;1999.90;999.90;;;6.60;99.90;;;;;;6217998;23;20029;-95
2021/03/16 00:10:41;;;;;;;1999.90;999.90;;;6.60;99.90;;;;;;6218188;23;20515;-95
2021/03/16 00:13:09;;;;;;;1999.90;999.90;;;6.60;99.90;;;;;;6217325;23;20025;-96
2021/03/16 00:15:37;;;;;;;1999.90;999.90;;;6.60;99.90;;;;;;6218533;23;20336;-95
2021/03/16 00:18:07;;;;;;;1999.90;999.90;;;6.50;99.90;;;;;;6218007;23;20075;-95
2021/03/16 00:20:34;;;;;;;1999.90;999.90;;;6.60;99.90;;;;;;6217899;23;20039;-96
2021/03/16 00:23:02;;;;;;;1999.90;999.90;;;6.60;99.90;;;;;;6218074;23;20027;-95
2021/03/16 00:25:29;;;;;;;1999.90;999.90;;;6.60;99.90;;;;;;6218002;23;20348;-96
2021/03/16 00:27:56;;;;;;;1999.90;999.90;;;6.50;99.90;;;;;;6219117;23;20025;-96
2021/03/16 00:30:25;;;;;;;1999.90;999.90;;;6.60;99.90;;;;;;6218571;23;20016;-96
2021/03/16 00:32:53;;;;;;;1999.90;999.90;;;6.60;99.90;;;;;;6219323;23;20020;-95
2021/03/16 00:35:20;;;;;;;1999.90;999.90;;;6.50;99.90;;;;;;6218967;23;20031;-95
2021/03/16 00:37:47;;;;;;;1999.90;999.90;;;6.50;99.90;;;;;;6219073;23;20051;-95
2021/03/16 00:40:15;;;;;;;1999.90;999.90;;;6.50;99.90;;;;;;6218838;23;20020;-95
2021/03/16 00:42:43;;;;;;;1999.90;999.90;;;6.50;99.90;;;;;;6219365;23;20025;-95
2021/03/16 00:45:11;;;;;;;1999.90;999.90;;;6.50;99.90;;;;;;6218765;23;20099;-95
2021/03/16 00:47:39;;;;;;;1999.90;999.90;;;6.40;99.90;;;;;;6218814;23;20372;-95
2021/03/16 00:50:09;;;;;;;1999.90;999.90;;;6.40;99.90;;;;;;6218137;23;20021;-95
2021/03/16 00:52:36;;;;;;;1999.90;999.90;;;6.40;99.90;;;;;;6218645;23;20020;-95
2021/03/16 00:55:05;;;;;;;1999.90;999.90;;;6.40;99.90;;;;;;6218888;23;20025;-95
2021/03/16 00:57:33;;;;;;;1999.90;999.90;;;6.40;99.90;;;;;;6220386;23;20062;-95
2021/03/16 01:00:00;;;;;;;1999.90;999.90;;;6.40;99.90;;;;;;6219848;23;20432;-95
2021/03/16 01:02:32;;;;;;;1999.90;999.90;;;6.40;99.90;;;;;;6220320;23;20074;-95
2021/03/16 01:05:01;;;;;;;1999.90;999.90;;;6.40;99.90;;;;;;6219586;23;20456;-95
2021/03/16 01:07:28;;;;;;;1999.90;999.90;;;6.40;99.90;;;;;;6220085;23;20025;-96
2021/03/16 01:09:55;;;;;;;1999.90;999.90;;;6.50;99.90;;;;;;6218837;23;20017;-96
2021/03/16 01:12:23;;;;;;;1999.90;999.90;;;6.50;99.90;;;;;;6218654;23;20035;-96
2021/03/16 01:14:50;;;;;;;1999.90;999.90;;;6.50;99.90;;;;;;6218502;23;20027;-95
2021/03/16 01:17:17;;;;;;;1999.90;999.90;;;6.50;99.90;;;;;;6218409;23;20075;-96
2021/03/16 01:19:44;;;;;;;1999.90;999.90;;;6.40;99.90;;;;;;6218052;23;20021;-96
2021/03/16 01:22:14;;;;;;;1999.90;999.90;;;6.50;99.90;;;;;;6218661;23;20391;-96
2021/03/16 01:24:41;;;;;;;1999.90;999.90;;;6.50;99.90;;;;;;6219182;23;20028;-96
2021/03/16 01:27:08;;;;;;;1999.90;999.90;;;6.50;99.90;;;;;;6219384;23;20025;-95
2021/03/16 01:29:36;;;;;;;1999.90;999.90;;;6.50;99.90;;;;;;6219228;23;20024;-95
2021/03/16 01:32:04;;;;;;;1999.90;999.90;;;6.50;99.90;;;;;;6218562;23;20024;-96
2021/03/16 01:34:31;;;;;;;1999.90;999.90;;;6.50;99.90;;;;;;6218491;23;20025;-95
2021/03/16 01:36:58;;;;;;;1999.90;999.90;;;6.40;99.90;;;;;;6218146;23;20024;-95
2021/03/16 01:39:26;;;;;;;1999.90;999.90;;;6.40;99.90;;;;;;6218368;23;20025;-95
2021/03/16 01:41:53;;;;;;;1999.90;999.90;;;6.40;99.90;;;;;;6217843;23;20024;-96
2021/03/16 01:44:21;;;;;;;1999.90;999.90;;;6.40;99.90;;;;;;6219091;23;20433;-95
2021/03/16 01:46:48;;;;;;;1999.90;999.90;;;6.40;99.90;;;;;;6218367;23;20082;-95
2021/03/16 01:49:15;;;;;;;1999.90;999.90;;;6.40;99.90;;;;;;6219078;23;20048;-94
2021/03/16 01:51:44;;;;;;;1999.90;999.90;;;6.40;99.90;;;;;;6218599;23;20067;-95
2021/03/16 01:54:12;;;;;;;1999.90;999.90;;;6.40;99.90;;;;;;6218033;23;20032;-95
2021/03/16 01:56:41;;;;;;;1999.90;999.90;;;6.40;99.90;;;;;;6218846;23;20435;-95
2021/03/16 01:59:15;;;;;;;1999.90;999.90;;;6.50;99.90;;;;;;6217778;23;20028;-95
2021/03/16 02:01:43;;;;;;;1999.90;999.90;;;6.50;99.90;;;;;;6218448;23;20020;-95
2021/03/16 02:04:11;;;;;;;1999.90;999.90;;;6.50;99.90;;;;;;6217739;23;20024;-96
2021/03/16 02:06:45;;;;;;;1999.90;999.90;;;6.50;99.90;;;;;;6217609;23;20534;-96
2021/03/16 02:09:19;;;;;;;1999.90;999.90;;;6.50;99.90;;;;;;6218763;23;20025;-95
2021/03/16 02:11:54;;;;;;;1999.90;999.90;;;6.50;99.90;;;;;;6217767;23;20376;-95
2021/03/16 02:14:27;;;;;;;1999.90;999.90;;;6.50;99.90;;;;;;6218996;23;20035;-95
2021/03/16 02:16:59;;;;;;;1999.90;999.90;;;6.60;99.90;;;;;;6217694;23;20095;-95
2021/03/16 02:19:54;;;;;;;1999.90;999.90;;;6.50;99.90;;;;;;6218051;23;20020;-96
2021/03/16 02:22:23;;;;;;;1999.90;999.90;;;6.50;99.90;;;;;;6218601;23;20028;-96
2021/03/16 02:25:07;;;;;;;1999.90;999.90;;;6.50;99.90;;;;;;6218457;23;20075;-96
2021/03/16 02:27:51;;;;;;;1999.90;999.90;;;6.50;99.90;;;;;;6218509;23;20028;-95
2021/03/16 02:30:20;;;;;;;1999.90;999.90;;;6.40;99.90;;;;;;6218465;23;20021;-95
2021/03/16 02:32:49;;;;;;;1999.90;999.90;;;6.50;99.90;;;;;;6218848;23;20044;-95
2021/03/16 02:35:18;;;;;;;1999.90;999.90;;;6.40;99.90;;;;;;6217785;23;20087;-95
2021/03/16 02:37:47;;;;;;;1999.90;999.90;;;6.40;99.90;;;;;;6217953;23;20024;-95
2021/03/16 02:40:16;;;;;;;1999.90;999.90;;;6.30;99.90;;;;;;6217570;23;20016;-96
2021/03/16 02:42:44;;;;;;;1999.90;999.90;;;6.40;99.90;;;;;;6218042;23;20025;-96
2021/03/16 02:45:13;;;;;;;1999.90;999.90;;;6.40;99.90;;;;;;6217797;23;20028;-95
2021/03/16 02:47:43;;;;;;;1999.90;999.90;;;6.40;99.90;;;;;;6218105;23;20024;-95
2021/03/16 02:50:12;;;;;;;1999.90;999.90;;;6.40;99.90;;;;;;6216449;23;20067;-95
2021/03/16 02:52:55;;;;;;;1999.90;999.90;;;6.30;99.90;;;;;;6217995;23;20024;-95
2021/03/16 02:55:23;;;;;;;1999.90;999.90;;;6.40;99.90;;;;;;6217282;23;20029;-94
2021/03/16 02:57:52;;;;;;;1999.90;999.90;;;6.30;99.90;;;;;;6217155;23;20029;-94
2021/03/16 03:00:20;;;;;;;1999.90;999.90;;;6.30;99.90;;;;;;6217158;23;20055;-95
2021/03/16 03:02:52;;;;;;;1999.90;999.90;;;6.30;99.90;;;;;;6218713;23;20024;-94
2021/03/16 03:05:22;;;;;;;1999.90;999.90;;;6.30;99.90;;;;;;6217559;23;20096;-95
2021/03/16 03:07:50;;;;;;;1999.90;999.90;;;6.30;99.90;;;;;;6217484;23;20021;-95
2021/03/16 03:10:18;;;;;;;1999.90;999.90;;;6.30;99.90;;;;;;6217930;23;20051;-95
2021/03/16 03:12:45;;;;;;;1999.90;999.90;;;6.30;99.90;;;;;;6217385;23;20021;-96
2021/03/16 03:15:13;;;;;;;1999.90;999.90;;;6.30;99.90;;;;;;6217119;23;20020;-94
2021/03/16 03:17:40;;;;;;;1999.90;999.90;;;6.30;99.90;;;;;;6217613;23;20075;-95
2021/03/16 03:20:11;;;;;;;1999.90;999.90;;;6.20;99.90;;;;;;6216759;23;20405;-95
2021/03/16 03:22:43;;;;;;;1999.90;999.90;;;6.20;99.90;;;;;;6217410;23;20025;-95
2021/03/16 03:25:16;;;;;;;1999.90;999.90;;;6.20;99.90;;;;;;6217171;23;20021;-95
2021/03/16 03:27:47;;;;;;;1999.90;999.90;;;6.20;99.90;;;;;;6217190;23;20075;-95
2021/03/16 03:30:17;;;;;;;1999.90;999.90;;;6.20;99.90;;;;;;6218089;23;20028;-95
2021/03/16 03:32:45;;;;;;;1999.90;999.90;;;6.20;99.90;;;;;;6218736;23;20021;-94
2021/03/16 03:35:15;;;;;;;1999.90;999.90;;;6.20;99.90;;;;;;6218235;23;20024;-95
2021/03/16 03:37:48;;;;;;;1999.90;999.90;;;6.20;99.90;;;;;;6218520;23;20083;-94
2021/03/16 03:40:16;;;;;;;1999.90;999.90;;;6.20;99.90;;;;;;6217937;23;20028;-95
2021/03/16 03:42:44;;;;;;;1999.90;999.90;;;6.20;99.90;;;;;;6217976;23;20025;-96
2021/03/16 03:45:14;;;;;;;1999.90;999.90;;;6.20;99.90;;;;;;6218909;23;20029;-95
2021/03/16 03:47:44;;;;;;;1999.90;999.90;;;6.20;99.90;;;;;;6218956;23;20573;-95
2021/03/16 03:50:15;;;;;;;1999.90;999.90;;;6.20;99.90;;;;;;6218357;23;20045;-96
2021/03/16 03:52:45;;;;;;;1999.90;999.90;;;6.20;99.90;;;;;;6218438;23;20021;-95
2021/03/16 03:55:14;;;;;;;1999.90;999.90;;;6.20;99.90;;;;;;6217957;23;20028;-95
2021/03/16 03:57:54;;;;;;;1999.90;999.90;;;6.20;99.90;;;;;;6218048;23;20021;-95
2021/03/16 04:00:22;;;;;;;1999.90;999.90;;;6.20;99.90;;;;;;6217143;23;20024;-95
2021/03/16 04:02:52;;;;;;;1999.90;999.90;;;6.20;99.90;;;;;;6220110;23;20028;-96
2021/03/16 04:05:20;;;;;;;1999.90;999.90;;;6.20;99.90;;;;;;6220994;23;20079;-95
2021/03/16 04:07:48;;;;;;;1999.90;999.90;;;6.20;99.90;;;;;;6221628;23;20075;-95
2021/03/16 04:10:16;;;;;;;1999.90;999.90;;;6.20;99.90;;;;;;6220323;23;20099;-94
2021/03/16 04:12:44;;;;;;;1999.90;999.90;;;6.20;99.90;;;;;;6219904;23;20059;-94
2021/03/16 04:15:13;;;;;;;1999.90;999.90;;;6.20;99.90;;;;;;6219984;23;20142;-94
2021/03/16 04:17:43;;;;;;;1999.90;999.90;;;6.20;99.90;;;;;;6219362;23;20029;-94
2021/03/16 04:20:12;;;;;;;1999.90;999.90;;;6.20;99.90;;;;;;6219197;23;20016;-95
2021/03/16 04:22:41;;;;;;;1999.90;999.90;;;6.20;99.90;;;;;;6218545;23;20020;-95
2021/03/16 04:25:10;;;;;;;1999.90;999.90;;;6.20;99.90;;;;;;6219846;23;20024;-95
2021/03/16 04:27:38;;;;;;;1999.90;999.90;;;6.20;99.90;;;;;;6219500;23;20075;-95
2021/03/16 04:30:08;;;;;;;1999.90;999.90;;;6.20;99.90;;;;;;6218408;23;20032;-95
2021/03/16 04:32:36;;;;;;;1999.90;999.90;;;6.20;99.90;;;;;;6219019;23;20021;-95
2021/03/16 04:35:04;;;;;;;1999.90;999.90;;;6.30;99.90;;;;;;6219521;23;20027;-95
2021/03/16 04:37:31;;;;;;;1999.90;999.90;;;6.20;99.90;;;;;;6219426;23;20027;-95
2021/03/16 04:39:59;;;;;;;1999.90;999.90;;;6.30;99.90;;;;;;6219226;23;20083;-95
2021/03/16 04:42:26;;;;;;;1999.90;999.90;;;6.30;99.90;;;;;;6219367;23;20027;-95
2021/03/16 04:44:53;;;;;;;1999.90;999.90;;;6.30;99.90;;;;;;6218837;23;20071;-95
2021/03/16 04:47:21;;;;;;;1999.90;999.90;;;6.30;99.90;;;;;;6218977;23;20025;-95
2021/03/16 04:49:48;;;;;;;1999.90;999.90;;;6.30;99.90;;;;;;6219772;23;20119;-95
2021/03/16 04:52:15;;;;;;;1999.90;999.90;;;6.30;99.90;;;;;;6218398;23;20016;-95
2021/03/16 04:54:43;;;;;;;1999.90;999.90;;;6.30;99.90;;;;;;6218754;23;20448;-95
2021/03/16 04:57:11;;;;;;;1999.90;999.90;;;6.30;99.90;;;;;;6219419;23;20021;-94
2021/03/16 04:59:38;;;;;;;1999.90;999.90;;;6.30;99.90;;;;;;6218201;23;20025;-95
2021/03/16 05:02:05;;;;;;;1999.90;999.90;;;6.30;99.90;;;;;;6218953;23;20021;-95
2021/03/16 05:04:33;;;;;;;1999.90;999.90;;;6.30;99.90;;;;;;6218859;23;20025;-96
2021/03/16 05:07:00;;;;;;;1999.90;999.90;;;6.30;99.90;;;;;;6218409;23;20499;-94
2021/03/16 05:09:27;;;;;;;1999.90;999.90;;;6.20;99.90;;;;;;6218873;23;20055;-95
2021/03/16 05:11:54;;;;;;;1999.90;999.90;;;6.30;99.90;;;;;;6219096;23;20024;-96
2021/03/16 05:14:22;;;;;;;1999.90;999.90;;;6.30;99.90;;;;;;6218092;23;20021;-95
2021/03/16 05:16:49;;;;;;;1999.90;999.90;;;6.20;99.90;;;;;;6218681;23;20021;-94
2021/03/16 05:19:17;;;;;;;1999.90;999.90;;;6.20;99.90;;;;;;6218934;23;20072;-95
2021/03/16 05:21:44;;;;;;;1999.90;999.90;;;6.30;99.90;;;;;;6219305;23;20023;-95
2021/03/16 05:24:11;;;;;;;1999.90;999.90;;;6.30;99.90;;;;;;6218473;23;20032;-95
2021/03/16 05:26:39;;;;;;;1999.90;999.90;;;6.30;99.90;;;;;;6218725;23;20083;-95
2021/03/16 05:29:06;;;;;;;1999.90;999.90;;;6.20;99.90;;;;;;6218865;23;20024;-95
2021/03/16 05:31:34;;;;;;;1999.90;999.90;;;6.20;99.90;;;;;;6218958;23;20498;-95
2021/03/16 05:34:02;;;;;;;1999.90;999.90;;;6.30;99.90;;;;;;6219006;23;20035;-94
2021/03/16 05:36:29;;;;;;;1999.90;999.90;;;6.30;99.90;;;;;;6219831;23;20024;-96
2021/03/16 05:38:56;;;;;;;1999.90;999.90;;;6.20;99.90;;;;;;6218258;23;20025;-95
2021/03/16 05:41:24;;;;;;;1999.90;999.90;;;6.20;99.90;;;;;;6218451;23;20128;-96
2021/03/16 05:43:51;;;;;;;1999.90;999.90;;;6.20;99.90;;;;;;6219236;23;20029;-95
2021/03/16 05:46:19;;;;;;;1999.90;999.90;;;6.20;99.90;;;;;;6218320;23;20021;-95
2021/03/16 05:48:49;;;;;;;1999.90;999.90;;;6.20;99.90;;;;;;6218914;23;20344;-94
2021/03/16 05:51:18;;;;;;;1999.90;999.90;;;6.20;99.90;;;;;;6218883;23;20318;-95
2021/03/16 05:53:48;;;;;;;1999.90;999.90;;;6.20;99.90;;;;;;6218693;23;20032;-95
2021/03/16 05:56:15;;;;;;;1999.90;999.90;;;6.20;99.90;;;;;;6219376;23;20024;-95
2021/03/16 05:58:43;;;;;;;1999.90;999.90;;;6.20;99.90;;;;;;6218428;23;20027;-95
2021/03/16 06:01:13;;;;;;;1999.90;999.90;;;6.20;99.90;;;;;;6218313;23;20025;-95
2021/03/16 06:03:40;;;;;;;1999.90;999.90;;;6.20;99.90;;;;;;6218219;23;20437;-94
2021/03/16 06:06:10;;;;;;;1999.90;999.90;;;6.20;99.90;;;;;;6218425;23;20498;-95
2021/03/16 06:08:37;;;;;;;1999.90;999.90;;;6.30;99.90;;;;;;6218116;23;20025;-94
2021/03/16 06:11:06;;;;;;;1999.90;999.90;;;6.30;99.90;;;;;;6218087;23;20023;-95
2021/03/16 06:13:33;;;;;;;1999.90;999.90;;;6.30;99.90;;;;;;6218709;23;20021;-96
2021/03/16 06:16:11;;;;;;;1999.90;999.90;;;6.30;99.90;;;;;;6217912;23;20021;-95
2021/03/16 06:18:46;;;;;;;1999.90;999.90;;;6.30;99.90;;;;;;6218168;23;20392;-95
2021/03/16 06:21:19;;;;;;;1999.90;999.90;;;6.30;99.90;;;;;;6218459;23;20023;-95
2021/03/16 06:23:54;;;;;;;1999.90;999.90;;;6.30;99.90;;;;;;6218547;23;20027;-95
2021/03/16 06:26:25;;;;;;;1999.90;999.90;;;6.30;99.90;;;;;;6217932;23;20024;-96
2021/03/16 06:28:52;;;;;;;1999.90;999.90;;;6.40;99.90;;;;;;6218092;23;20025;-96
2021/03/16 06:31:24;;;;;;;1999.90;999.90;;;6.40;99.90;;;;;;6218043;23;20504;-95
2021/03/16 06:33:52;;;;;;;1999.90;999.90;;;6.40;99.90;;;;;;6218914;23;20578;-96
2021/03/16 06:36:25;;;;;;;1999.90;999.90;;;6.40;99.90;;;;;;6217982;23;20020;-96
2021/03/16 06:38:52;;;;;;;1999.90;999.90;;;6.40;99.90;;;;;;6218139;23;20024;-95
2021/03/16 06:41:22;;;;;;;1999.90;999.90;;;6.50;99.90;;;;;;6217301;23;20399;-96
2021/03/16 06:43:54;;;;;;;1999.90;999.90;;;6.50;99.90;;;;;;6217492;23;20024;-95
2021/03/16 06:46:32;;;;;;;1999.90;999.90;;;6.50;99.90;;;;;;6218012;23;20020;-95
2021/03/16 06:49:00;;;;;;;1999.90;999.90;;;6.50;99.90;;;;;;6219126;23;20487;-94
2021/03/16 06:51:32;;;;;;;1999.90;999.90;;;6.50;99.90;;;;;;6218673;23;20021;-94
2021/03/16 06:54:09;;;;;;;1999.90;999.90;;;6.60;99.90;;;;;;6218065;23;20043;-95
2021/03/16 06:56:36;;;;;;;1999.90;999.90;;;6.60;99.90;;;;;;6218350;23;20020;-95
2021/03/16 06:59:05;;;;;;;1999.90;999.90;;;6.60;99.90;;;;;;6217378;23;20025;-95
2021/03/16 07:01:34;;;;;;;1999.90;999.90;;;6.60;99.90;;;;;;6218654;23;20017;-94
2021/03/16 07:04:13;;;;;;;1999.90;999.90;;;6.60;99.90;;;;;;6217859;23;20076;-96
2021/03/16 07:06:42;;;;;;;1999.90;999.90;;;6.60;99.90;;;;;;6217848;23;20028;-95
2021/03/16 07:09:12;;;;;;;1999.90;999.90;;;6.60;99.90;;;;;;6218876;23;20313;-95
2021/03/16 07:11:40;;;;;;;1999.90;999.90;;;6.60;99.90;;;;;;6218068;23;20016;-95
2021/03/16 07:14:08;;;;;;;1999.90;999.90;;;6.60;99.90;;;;;;6217855;23;20091;-95
2021/03/16 07:16:36;;;;;;;1999.90;999.90;;;6.70;99.90;;;;;;6217745;23;20055;-95
2021/03/16 07:19:04;;;;;;;1999.90;999.90;;;6.70;99.90;;;;;;6217935;23;20020;-95
2021/03/16 07:21:38;;;;;;;1999.90;999.90;;;6.80;99.90;;;;;;6218231;23;20071;-95
2021/03/16 07:24:08;;;;;;;1999.90;999.90;;;6.80;99.90;;;;;;6218041;23;20021;-95
2021/03/16 07:26:37;;;;;;;1999.90;999.90;;;6.80;99.90;;;;;;6218740;23;20075;-95
2021/03/16 07:29:07;;;;;;;1999.90;999.90;;;6.80;99.90;;;;;;6217869;23;20027;-96
2021/03/16 07:31:38;;;;;;;1999.90;999.90;;;6.80;99.90;;;;;;6217450;23;20024;-95
2021/03/16 07:34:07;;;;;;;1999.90;999.90;;;6.80;99.90;;;;;;6217468;23;20047;-94
2021/03/16 07:36:37;;;;;;;1999.90;999.90;;;6.90;99.90;;;;;;6218142;23;20024;-95
2021/03/16 07:39:07;;;;;;;1999.90;999.90;;;6.90;99.90;;;;;;6219789;23;20060;-96
2021/03/16 07:41:37;;;;;;;1999.90;999.90;;;6.90;99.90;;;;;;6218926;23;20456;-95
2021/03/16 07:44:06;;;;;;;1999.90;999.90;;;7.00;99.90;;;;;;6219583;23;20021;-94
2021/03/16 07:46:42;;;;;;;1999.90;999.90;;;7.00;99.90;;;;;;6219402;23;20025;-95
2021/03/16 07:49:12;;;;;;;1999.90;999.90;;;7.00;99.90;;;;;;6219340;23;20502;-95
2021/03/16 07:51:42;;;;;;;1999.90;999.90;;;7.10;99.90;;;;;;6220021;23;20017;-95
2021/03/16 07:54:20;;;;;;;1999.90;999.90;;;7.00;99.90;;;;;;6219631;23;20021;-96
2021/03/16 07:56:57;;;;;;;1999.90;999.90;;;7.00;99.90;;;;;;6220599;23;20496;-95
2021/03/16 07:59:30;;;;;;;1999.90;999.90;;;7.10;99.90;;;;;;6219296;23;20021;-95
2021/03/16 08:02:07;;;;;;;1999.90;999.90;;;7.10;99.90;;;;;;6219811;23;20025;-95
2021/03/16 08:04:36;;;;;;;1999.90;999.90;;;7.10;99.90;;;;;;6219510;23;20028;-95
2021/03/16 08:07:05;;;;;;;1999.90;999.90;;;7.20;99.90;;;;;;6219510;23;20024;-95
2021/03/16 08:09:44;;;;;;;1999.90;999.90;;;7.30;99.90;;;;;;6219167;23;20464;-94
2021/03/16 08:12:19;;;;;;;1999.90;999.90;;;7.30;99.90;;;;;;6220396;23;20024;-95
2021/03/16 08:14:48;;;;;;;1999.90;999.90;;;7.30;99.90;;;;;;6220270;23;20136;-94
2021/03/16 08:17:28;;;;;;;1999.90;999.90;;;7.30;99.90;;;;;;6219691;23;20024;-95
2021/03/16 08:19:56;;;;;;;1999.90;999.90;;;7.30;99.90;;;;;;6218942;23;20025;-96
2021/03/16 08:22:25;;;;;;;1999.90;999.90;;;7.30;99.90;;;;;;6219511;23;20052;-95
2021/03/16 08:24:59;;;;;;;1999.90;999.90;;;7.30;99.90;;;;;;6219003;23;20245;-95
2021/03/16 08:27:27;;;;;;;1999.90;999.90;;;7.30;99.90;;;;;;6220650;23;20024;-96
2021/03/16 08:29:55;;;;;;;1999.90;999.90;;;7.40;99.90;;;;;;6220415;23;20103;-96
2021/03/16 08:32:24;;;;;;;1999.90;999.90;;;7.40;99.90;;;;;;6221044;23;20457;-95
2021/03/16 08:34:54;;;;;;;1999.90;999.90;;;7.50;99.90;;;;;;6221232;23;20021;-95
2021/03/16 08:37:23;;;;;;;1999.90;999.90;;;7.50;99.90;;;;;;6220644;23;20020;-95
2021/03/16 08:39:53;;;;;;;1999.90;999.90;;;7.60;99.90;;;;;;6221467;23;20027;-95
2021/03/16 08:42:23;;;;;;;1999.90;999.90;;;7.70;99.90;;;;;;6221289;23;20024;-96
2021/03/16 08:44:51;;;;;;;1999.90;999.90;;;7.70;99.90;;;;;;6221150;23;20024;-96
2021/03/16 08:47:20;;;;;;;1999.90;999.90;;;7.70;99.90;;;;;;6220780;23;20318;-96
2021/03/16 08:49:49;;;;;;;1999.90;999.90;;;7.70;99.90;;;;;;6222264;23;20492;-94
2021/03/16 08:52:18;;;;;;;1999.90;999.90;;;7.80;99.90;;;;;;6220674;23;20456;-95
2021/03/16 08:54:46;;;;;;;1999.90;999.90;;;7.80;99.90;;;;;;6222575;23;20508;-95
2021/03/16 08:57:19;;;;;;;1999.90;999.90;;;7.80;99.90;;;;;;6222383;23;20021;-95
2021/03/16 08:59:48;;;;;;;1999.90;999.90;;;7.70;99.90;;;;;;6220676;23;20040;-95
2021/03/16 09:02:19;;;;;;;1999.90;999.90;;;7.70;99.90;;;;;;6221304;23;20074;-96
2021/03/16 09:04:47;;;;;;;1999.90;999.90;;;7.70;99.90;;;;;;6219646;23;20083;-95
2021/03/16 09:07:21;;;;;;;1999.90;999.90;;;7.70;99.90;;;;;;6220494;23;20028;-95
2021/03/16 09:09:48;;;;;;;1999.90;999.90;;;7.80;99.90;;;;;;6227267;23;20020;-95
2021/03/16 09:12:27;;;;;;;1999.90;999.90;;;7.90;99.90;;;;;;6233492;23;20072;-96
2021/03/16 09:14:54;;;;;;;1999.90;999.90;;;8.00;99.90;;;;;;6223704;23;20444;-96
2021/03/16 09:17:21;;;;;;;1999.90;999.90;;;8.00;99.90;;;;;;6219605;23;20020;-95
2021/03/16 09:19:50;;;;;;;1999.90;999.90;;;8.10;99.90;;;;;;6219879;23;20044;-96
2021/03/16 09:22:17;;;;;;;1999.90;999.90;;;8.20;99.90;;;;;;6219901;23;20032;-96
2021/03/16 09:24:45;;;;;;;1999.90;999.90;;;8.20;99.90;;;;;;6219004;23;20024;-95
2021/03/16 09:27:14;;;;;;;1999.90;999.90;;;8.20;99.90;;;;;;6219097;23;20028;-95
2021/03/16 09:29:44;;;;;;;1999.90;999.90;;;8.20;99.90;;;;;;6219749;23;20036;-96
2021/03/16 09:32:17;;;;;;;1999.90;999.90;;;8.20;99.90;;;;;;6219558;23;20448;-96
2021/03/16 09:37:57;;;;;;;1999.90;999.90;;;8.10;99.90;;;;;;6218610;23;20028;-96
2021/03/16 09:41:21;;;;;;;1999.90;999.90;;;8.20;99.90;;;;;;6217920;23;20021;-95
2021/03/16 09:43:51;;;;;;;1999.90;999.90;;;8.20;99.90;;;;;;6206807;23;20031;-96
2021/03/16 09:46:19;;;;;;;1999.90;999.90;;;8.20;99.90;;;;;;6218237;23;20095;-96
2021/03/16 09:48:48;;;;;;;1999.90;999.90;;;8.20;99.90;;;;;;6218946;23;20024;-95
2021/03/16 09:51:18;;;;;;;1999.90;999.90;;;8.30;99.90;;;;;;6219237;23;20071;-94
2021/03/16 09:53:47;;;;;;;1999.90;999.90;;;8.20;99.90;;;;;;6218835;23;20503;-94
2021/03/16 09:56:15;;;;;;;1999.90;999.90;;;8.20;99.90;;;;;;6218484;23;20024;-94
2021/03/16 09:58:49;;;;;;;1999.90;999.90;;;8.30;99.90;;;;;;6218532;23;20025;-95
2021/03/16 10:01:27;;;;;;;1999.90;999.90;;;8.20;99.90;;;;;;6218114;23;20079;-95
2021/03/16 10:04:15;;;;;;;1999.90;999.90;;;8.30;99.90;;;;;;6218717;23;20031;-95
2021/03/16 10:06:43;;;;;;;1999.90;999.90;;;8.30;99.90;;;;;;6219383;23;20035;-94
2021/03/16 10:09:39;;;;;;;1999.90;999.90;;;8.30;99.90;;;;;;6217499;23;20020;-95
2021/03/16 10:12:17;;;;;;;1999.90;999.90;;;8.40;99.90;;;;;;6218510;23;20471;-95
2021/03/16 10:14:48;;;;;;;1999.90;999.90;;;8.40;99.90;;;;;;6218539;23;20437;-95
2021/03/16 10:17:33;;;;;;;1999.90;999.90;;;8.40;99.90;;;;;;6217612;23;20024;-96
2021/03/16 10:20:03;;;;;;;1999.90;999.90;;;8.40;99.90;;;;;;6218084;23;20108;-95
2021/03/16 10:22:31;;;;;;;1999.90;999.90;;;8.40;99.90;;;;;;6217606;23;20021;-96
2021/03/16 10:24:59;;;;;;;1999.90;999.90;;;8.40;99.90;;;;;;6217854;23;20021;-96
2021/03/16 10:27:29;;;;;;;1999.90;999.90;;;8.40;99.90;;;;;;6218307;23;20039;-96
2021/03/16 10:29:57;;;;;;;1999.90;999.90;;;8.40;99.90;;;;;;6217018;23;20024;-95
2021/03/16 10:39:54;;;;;;;1999.90;999.90;;;8.50;99.90;;;;;;6237838;23;20011;-96
2021/03/16 10:42:22;;;;;;;1999.90;999.90;;;8.40;99.90;;;;;;6191903;23;20028;-96
2021/03/16 10:44:50;;;;;;;1999.90;999.90;;;8.40;99.90;;;;;;6189662;23;20028;-96
2021/03/16 10:47:19;;;;;;;1999.90;999.90;;;8.40;99.90;;;;;;6191368;23;20104;-96
2021/03/16 10:49:48;;;;;;;1999.90;999.90;;;8.50;99.90;;;;;;6194688;23;20028;-95
2021/03/16 10:52:16;;;;;;;1999.90;999.90;;;8.50;99.90;;;;;;6196210;23;20032;-96
2021/03/16 10:54:43;;;;;;;1999.90;999.90;;;8.50;99.90;;;;;;6191556;23;20025;-96
2021/03/16 10:57:11;;;;;;;1999.90;999.90;;;8.50;99.90;;;;;;6195374;23;20079;-96
2021/03/16 10:59:38;;;;;;;1999.90;999.90;;;8.60;99.90;;;;;;6202710;23;20025;-96
2021/03/16 11:02:06;;;;;;;1999.90;999.90;;;8.60;99.90;;;;;;6191274;23;20021;-96
2021/03/16 11:04:35;;;;;;;1999.90;999.90;;;8.70;99.90;;;;;;6196924;23;20031;-96
2021/03/16 11:07:07;;;;;;;1999.90;999.90;;;8.70;99.90;;;;;;6195893;23;20040;-96
2021/03/16 11:09:37;;;;;;;1999.90;999.90;;;8.80;99.90;;;;;;6194727;23;20021;-96
2021/03/16 11:12:06;;;;;;;1999.90;999.90;;;8.80;99.90;;;;;;6190346;23;20028;-96
2021/03/16 11:14:38;;;;;;;1999.90;999.90;;;8.90;99.90;;;;;;6199663;23;20048;-96
2021/03/16 11:17:08;;;;;;;1999.90;999.90;;;8.80;99.90;;;;;;6201877;23;20032;-96
2021/03/16 11:19:36;;;;;;;1999.90;999.90;;;8.90;99.90;;;;;;6194612;23;20080;-96
2021/03/16 11:27:38;;;;;;;1999.90;999.90;;;8.90;99.90;;;;;;6220438;23;20028;-96
2021/03/16 11:30:07;;;;;;;1999.90;999.90;;;8.90;99.90;;;;;;6220283;23;20024;-96
2021/03/16 11:32:48;;;;;;;1999.90;999.90;;;8.80;99.90;;;;;;6220313;23;20445;-96
2021/03/16 11:46:43;;;;;;;1999.90;999.90;;;8.70;99.90;;;;;;6158773;23;20012;-96
2021/03/16 11:49:42;;;;;;;1999.90;999.90;;;8.60;99.90;;;;;;6173794;23;20029;-96
2021/03/16 11:53:01;;;;;;;1999.90;999.90;;;8.70;99.90;;;;;;6238028;23;20021;-96
2021/03/16 12:03:21;;;;;;;1999.90;999.90;;;8.30;99.90;;;;;;6226560;23;20011;-96
2021/03/16 12:05:50;;;;;;;1999.90;999.90;;;8.30;99.90;;;;;;6207509;23;20032;-96
2021/03/16 12:08:17;;;;;;;1999.90;999.90;;;8.30;99.90;;;;;;6217456;23;20094;-95
2021/03/16 12:10:44;;;;;;;1999.90;999.90;;;8.30;99.90;;;;;;6216584;23;20051;-96
2021/03/16 12:13:13;;;;;;;1999.90;999.90;;;8.20;99.90;;;;;;6218541;23;20017;-96
2021/03/16 12:15:58;;;;;;;1999.90;999.90;;;8.20;99.90;;;;;;6218176;23;20031;-96
2021/03/16 12:18:27;;;;;;;1999.90;999.90;;;8.30;99.90;;;;;;6218272;23;20302;-96
2021/03/16 12:21:15;;;;;;;1999.90;999.90;;;8.30;99.90;;;;;;6209995;23;20028;-96
2021/03/16 12:23:43;;;;;;;1999.90;999.90;;;8.20;99.90;;;;;;6219967;23;20031;-96
2021/03/16 12:26:10;;;;;;;1999.90;999.90;;;8.20;99.90;;;;;;6219620;23;20020;-96
2021/03/16 12:28:37;;;;;;;1999.90;999.90;;;8.20;99.90;;;;;;6219651;23;20028;-96
2021/03/16 12:31:06;;;;;;;1999.90;999.90;;;8.20;99.90;;;;;;6219913;23;20024;-96
2021/03/16 12:33:34;;;;;;;1999.90;999.90;;;8.20;99.90;;;;;;6219446;23;20028;-96
2021/03/16 12:36:02;;;;;;;1999.90;999.90;;;8.20;99.90;;;;;;6219364;23;20452;-95
2021/03/16 12:38:29;;;;;;;1999.90;999.90;;;8.10;99.90;;;;;;6218861;23;20100;-96
2021/03/16 12:40:56;;;;;;;1999.90;999.90;;;8.10;99.90;;;;;;6218868;23;20383;-96
2021/03/16 12:43:23;;;;;;;1999.90;999.90;;;8.10;99.90;;;;;;6219092;23;20048;-96
2021/03/16 12:45:51;;;;;;;1999.90;999.90;;;8.00;99.90;;;;;;6219261;23;20025;-95
2021/03/16 12:48:18;;;;;;;1999.90;999.90;;;8.00;99.90;;;;;;6216155;22;20025;-95
2021/03/16 12:50:46;;;;;;;1999.90;999.90;;;8.00;99.90;;;;;;6249385;23;20040;-96
2021/03/16 12:53:13;;;;;;;1999.90;999.90;;;8.00;99.90;;;;;;6248753;23;20016;-95
2021/03/16 12:55:42;;;;;;;1999.90;999.90;;;8.00;99.90;;;;;;6248883;23;20024;-94
2021/03/16 12:58:09;;;;;;;1999.90;999.90;;;8.00;99.90;;;;;;6248899;23;20024;-95